ACA210 CYVR-CYEG
Flight info
| Callsign | ACA210 |
|---|---|
| Flight time | N/A |
| Altitude | 35000 |
| Route | VIDRI Q949 ELLKS ELLKS3 |
| Aircraft | A321/M-SDE3FGHIRWY/LB1 |
Departure
| Time | N/A |
|---|---|
| Airport | Vancouver International Airport (CYVR) |
Arrival
| Time | 2026-05-06 21:13 |
|---|---|
| Airport | Edmonton International Airport (CYEG) |
| Time | Latitude | Longitude | Altitude | Speed | Heading |
|---|---|---|---|---|---|
| 2026-05-06 20:16 | 49.62908 | -122.40151 | 14664 ft | 438 kts | 40° |
| 2026-05-06 20:16 | 49.65109 | -122.36888 | 15018 ft | 440 kts | 40° |
| 2026-05-06 20:16 | 49.67321 | -122.33601 | 15384 ft | 443 kts | 40° |
| 2026-05-06 20:16 | 49.69515 | -122.30336 | 15734 ft | 445 kts | 41° |
| 2026-05-06 20:17 | 49.71747 | -122.27011 | 16139 ft | 446 kts | 40° |
| 2026-05-06 20:17 | 49.73988 | -122.23671 | 16521 ft | 449 kts | 41° |
| 2026-05-06 20:17 | 49.76245 | -122.20300 | 16896 ft | 451 kts | 40° |
| 2026-05-06 20:17 | 49.78509 | -122.16913 | 17248 ft | 454 kts | 40° |
| 2026-05-06 20:18 | 49.80783 | -122.13503 | 17659 ft | 456 kts | 41° |
| 2026-05-06 20:18 | 49.83065 | -122.10075 | 18059 ft | 458 kts | 40° |
| 2026-05-06 20:18 | 49.85366 | -122.06616 | 18401 ft | 461 kts | 40° |
| 2026-05-06 20:18 | 49.87679 | -122.03131 | 18691 ft | 465 kts | 40° |
| 2026-05-06 20:19 | 49.89997 | -121.99627 | 19036 ft | 466 kts | 40° |
| 2026-05-06 20:19 | 49.92324 | -121.96108 | 19390 ft | 468 kts | 40° |
| 2026-05-06 20:19 | 49.94629 | -121.92619 | 19685 ft | 470 kts | 40° |
| 2026-05-06 20:19 | 49.96975 | -121.89066 | 19969 ft | 472 kts | 40° |
| 2026-05-06 20:20 | 49.99332 | -121.85494 | 20259 ft | 474 kts | 40° |
| 2026-05-06 20:20 | 50.01700 | -121.81900 | 20583 ft | 476 kts | 40° |
| 2026-05-06 20:20 | 50.04076 | -121.78290 | 20876 ft | 479 kts | 40° |
| 2026-05-06 20:20 | 50.06471 | -121.74647 | 21166 ft | 482 kts | 40° |
| 2026-05-06 20:21 | 50.08870 | -121.70990 | 21448 ft | 484 kts | 40° |
| 2026-05-06 20:21 | 50.11285 | -121.67303 | 21732 ft | 486 kts | 40° |
| 2026-05-06 20:21 | 50.13705 | -121.63601 | 22010 ft | 489 kts | 40° |
| 2026-05-06 20:21 | 50.16134 | -121.59881 | 22309 ft | 491 kts | 40° |
| 2026-05-06 20:22 | 50.18570 | -121.56145 | 22594 ft | 493 kts | 40° |
| 2026-05-06 20:22 | 50.21020 | -121.52385 | 22903 ft | 495 kts | 40° |
| 2026-05-06 20:22 | 50.23350 | -121.48480 | 23136 ft | 500 kts | 47° |
| 2026-05-06 20:22 | 50.25512 | -121.44196 | 23385 ft | 503 kts | 48° |
| 2026-05-06 20:23 | 50.27682 | -121.39896 | 23619 ft | 504 kts | 48° |
| 2026-05-06 20:23 | 50.29858 | -121.35598 | 23821 ft | 506 kts | 47° |
| 2026-05-06 20:23 | 50.32048 | -121.31280 | 24014 ft | 507 kts | 47° |
| 2026-05-06 20:23 | 50.34246 | -121.26942 | 24181 ft | 508 kts | 47° |
| 2026-05-06 20:24 | 50.36445 | -121.22592 | 24364 ft | 509 kts | 47° |
| 2026-05-06 20:24 | 50.38641 | -121.18237 | 24536 ft | 510 kts | 47° |
| 2026-05-06 20:24 | 50.40834 | -121.13876 | 24768 ft | 509 kts | 47° |
| 2026-05-06 20:24 | 50.43024 | -121.09506 | 24993 ft | 509 kts | 47° |
| 2026-05-06 20:25 | 50.45201 | -121.05152 | 25250 ft | 508 kts | 47° |
| 2026-05-06 20:25 | 50.47377 | -121.00793 | 25490 ft | 507 kts | 47° |
| 2026-05-06 20:25 | 50.49551 | -120.96437 | 25717 ft | 506 kts | 47° |
| 2026-05-06 20:25 | 50.51720 | -120.92085 | 25955 ft | 506 kts | 46° |
| 2026-05-06 20:26 | 50.53885 | -120.87733 | 26188 ft | 505 kts | 47° |
| 2026-05-06 20:26 | 50.56048 | -120.83382 | 26423 ft | 505 kts | 46° |
| 2026-05-06 20:26 | 50.58208 | -120.79033 | 26662 ft | 504 kts | 46° |
| 2026-05-06 20:26 | 50.60334 | -120.74741 | 26937 ft | 504 kts | 47° |
| 2026-05-06 20:27 | 50.62486 | -120.70384 | 27215 ft | 502 kts | 46° |
| 2026-05-06 20:27 | 50.64627 | -120.66043 | 27450 ft | 501 kts | 46° |
| 2026-05-06 20:27 | 50.66767 | -120.61692 | 27666 ft | 501 kts | 46° |
| 2026-05-06 20:27 | 50.68899 | -120.57351 | 27895 ft | 501 kts | 46° |
| 2026-05-06 20:28 | 50.71035 | -120.52997 | 28138 ft | 500 kts | 46° |
| 2026-05-06 20:28 | 50.73168 | -120.48646 | 28371 ft | 500 kts | 46° |
| 2026-05-06 20:28 | 50.75293 | -120.44303 | 28597 ft | 500 kts | 46° |
| 2026-05-06 20:28 | 50.77416 | -120.39960 | 28847 ft | 499 kts | 46° |
| 2026-05-06 20:29 | 50.79533 | -120.35620 | 29094 ft | 497 kts | 46° |
| 2026-05-06 20:29 | 50.81612 | -120.31344 | 29330 ft | 497 kts | 46° |
| 2026-05-06 20:29 | 50.83716 | -120.27011 | 29556 ft | 497 kts | 46° |
| 2026-05-06 20:29 | 50.85817 | -120.22675 | 29787 ft | 496 kts | 46° |
| 2026-05-06 20:30 | 50.87919 | -120.18329 | 30012 ft | 496 kts | 46° |
| 2026-05-06 20:30 | 50.92112 | -120.09662 | 30421 ft | 495 kts | 46° |
| 2026-05-06 20:30 | 50.94202 | -120.05324 | 30642 ft | 495 kts | 47° |
| 2026-05-06 20:31 | 50.96285 | -120.00987 | 30856 ft | 494 kts | 47° |
| 2026-05-06 20:31 | 50.98365 | -119.96654 | 31069 ft | 493 kts | 47° |
| 2026-05-06 20:31 | 51.00441 | -119.92320 | 31275 ft | 493 kts | 47° |
| 2026-05-06 20:31 | 51.02515 | -119.87983 | 31483 ft | 493 kts | 47° |
| 2026-05-06 20:32 | 51.04588 | -119.83647 | 31701 ft | 493 kts | 46° |
| 2026-05-06 20:32 | 51.06663 | -119.79299 | 31907 ft | 492 kts | 46° |
| 2026-05-06 20:32 | 51.08704 | -119.75016 | 32092 ft | 492 kts | 46° |
| 2026-05-06 20:32 | 51.10793 | -119.70618 | 32337 ft | 491 kts | 47° |
| 2026-05-06 20:33 | 51.12853 | -119.66268 | 32562 ft | 491 kts | 47° |
| 2026-05-06 20:33 | 51.14879 | -119.61990 | 32775 ft | 490 kts | 47° |
| 2026-05-06 20:33 | 51.16937 | -119.57650 | 32988 ft | 490 kts | 47° |
| 2026-05-06 20:33 | 51.18987 | -119.53326 | 33261 ft | 488 kts | 48° |
| 2026-05-06 20:34 | 51.21030 | -119.49006 | 33506 ft | 487 kts | 48° |
| 2026-05-06 20:34 | 51.23066 | -119.44688 | 33746 ft | 487 kts | 48° |
| 2026-05-06 20:34 | 51.25097 | -119.40366 | 33969 ft | 486 kts | 48° |
| 2026-05-06 20:34 | 51.27122 | -119.36040 | 34152 ft | 486 kts | 48° |
| 2026-05-06 20:35 | 51.29144 | -119.31710 | 34323 ft | 486 kts | 48° |
| 2026-05-06 20:35 | 51.31166 | -119.27379 | 34509 ft | 486 kts | 48° |
| 2026-05-06 20:35 | 51.33187 | -119.23048 | 34662 ft | 486 kts | 48° |
| 2026-05-06 20:35 | 51.35208 | -119.18712 | 34843 ft | 486 kts | 48° |
| 2026-05-06 20:36 | 51.36546 | -119.15835 | 34904 ft | 486 kts | 48° |
| 2026-05-06 20:36 | 51.40587 | -119.07131 | 34944 ft | 486 kts | 48° |
| 2026-05-06 20:37 | 51.44622 | -118.98432 | 34969 ft | 486 kts | 49° |
| 2026-05-06 20:37 | 51.48643 | -118.89716 | 34956 ft | 485 kts | 49° |
| 2026-05-06 20:38 | 51.52644 | -118.80991 | 34961 ft | 485 kts | 49° |
| 2026-05-06 20:38 | 51.56618 | -118.72314 | 34959 ft | 485 kts | 49° |
| 2026-05-06 20:39 | 51.60615 | -118.63564 | 34972 ft | 485 kts | 50° |
| 2026-05-06 20:39 | 51.64606 | -118.54796 | 34968 ft | 485 kts | 50° |
| 2026-05-06 20:40 | 51.68593 | -118.46004 | 34969 ft | 485 kts | 50° |
| 2026-05-06 20:40 | 51.72572 | -118.37213 | 34962 ft | 485 kts | 50° |
| 2026-05-06 20:41 | 51.76526 | -118.28447 | 34958 ft | 485 kts | 50° |
| 2026-05-06 20:41 | 51.80479 | -118.19629 | 34967 ft | 485 kts | 51° |
| 2026-05-06 20:42 | 51.83216 | -118.13504 | 34983 ft | 485 kts | 51° |
| 2026-05-06 20:42 | 51.87162 | -118.04666 | 34975 ft | 484 kts | 51° |
| 2026-05-06 20:43 | 51.91104 | -117.95811 | 34991 ft | 484 kts | 51° |
| 2026-05-06 20:43 | 51.95043 | -117.86942 | 34990 ft | 484 kts | 52° |
| 2026-05-06 20:44 | 51.98963 | -117.78043 | 34992 ft | 484 kts | 52° |
| 2026-05-06 20:44 | 52.02873 | -117.69147 | 34988 ft | 484 kts | 52° |
| 2026-05-06 20:45 | 52.06755 | -117.60307 | 35002 ft | 484 kts | 52° |
| 2026-05-06 20:45 | 52.10660 | -117.51383 | 35006 ft | 483 kts | 52° |
| 2026-05-06 20:46 | 52.14551 | -117.42450 | 35016 ft | 483 kts | 52° |
| 2026-05-06 20:46 | 52.18424 | -117.33499 | 35022 ft | 483 kts | 52° |
| 2026-05-06 20:47 | 52.22260 | -117.24598 | 35016 ft | 482 kts | 52° |
| 2026-05-06 20:47 | 52.26118 | -117.15654 | 35015 ft | 482 kts | 52° |
| 2026-05-06 20:48 | 52.29955 | -117.06705 | 35007 ft | 480 kts | 53° |
| 2026-05-06 20:48 | 52.33141 | -116.99258 | 35005 ft | 480 kts | 52° |
| 2026-05-06 20:49 | 52.35902 | -116.92971 | 34992 ft | 480 kts | 52° |
| 2026-05-06 20:49 | 52.39730 | -116.84005 | 34994 ft | 480 kts | 53° |
| 2026-05-06 20:50 | 52.43507 | -116.74948 | 34976 ft | 480 kts | 53° |
| 2026-05-06 20:50 | 52.47264 | -116.65967 | 34984 ft | 480 kts | 53° |
| 2026-05-06 20:51 | 52.51061 | -116.56955 | 34942 ft | 479 kts | 53° |
| 2026-05-06 20:51 | 52.54845 | -116.47959 | 34939 ft | 479 kts | 53° |
| 2026-05-06 20:52 | 52.58612 | -116.38911 | 34913 ft | 479 kts | 57° |
| 2026-05-06 20:52 | 52.61846 | -116.28785 | 34886 ft | 481 kts | 60° |
| 2026-05-06 20:53 | 52.64768 | -116.19350 | 34884 ft | 481 kts | 61° |
| 2026-05-06 20:53 | 52.67802 | -116.09522 | 34865 ft | 481 kts | 61° |
| 2026-05-06 20:54 | 52.70817 | -115.99733 | 34855 ft | 482 kts | 61° |
| 2026-05-06 20:54 | 52.72333 | -115.94807 | 34653 ft | 481 kts | 60° |
| 2026-05-06 20:54 | 52.73842 | -115.89892 | 34411 ft | 480 kts | 60° |
| 2026-05-06 20:54 | 52.75345 | -115.84983 | 33907 ft | 480 kts | 61° |
| 2026-05-06 20:55 | 52.76859 | -115.80023 | 32835 ft | 485 kts | 61° |
| 2026-05-06 20:55 | 52.78363 | -115.75072 | 32061 ft | 482 kts | 61° |
| 2026-05-06 20:55 | 52.79873 | -115.70096 | 31051 ft | 486 kts | 61° |
| 2026-05-06 20:55 | 52.81390 | -115.65085 | 30144 ft | 487 kts | 60° |
| 2026-05-06 20:56 | 52.82912 | -115.60046 | 28947 ft | 492 kts | 60° |
| 2026-05-06 20:56 | 52.84437 | -115.54988 | 27863 ft | 493 kts | 60° |
| 2026-05-06 20:56 | 52.85968 | -115.49903 | 26763 ft | 493 kts | 60° |
| 2026-05-06 20:56 | 52.87484 | -115.44869 | 25530 ft | 497 kts | 60° |
| 2026-05-06 20:57 | 52.89031 | -115.39724 | 24339 ft | 500 kts | 60° |
| 2026-05-06 20:57 | 52.90578 | -115.34560 | 23206 ft | 501 kts | 61° |
| 2026-05-06 20:57 | 52.92115 | -115.29410 | 22310 ft | 493 kts | 61° |
| 2026-05-06 20:57 | 52.93618 | -115.24350 | 21485 ft | 486 kts | 60° |
| 2026-05-06 20:58 | 52.95099 | -115.19356 | 20680 ft | 479 kts | 61° |
| 2026-05-06 20:58 | 52.96559 | -115.14421 | 19889 ft | 474 kts | 61° |
| 2026-05-06 20:58 | 52.98007 | -115.09529 | 19131 ft | 469 kts | 60° |
| 2026-05-06 20:58 | 52.99433 | -115.04712 | 18358 ft | 463 kts | 60° |
| 2026-05-06 20:59 | 53.00828 | -114.99987 | 17575 ft | 458 kts | 60° |
| 2026-05-06 20:59 | 53.02222 | -114.95263 | 16874 ft | 450 kts | 60° |
| 2026-05-06 20:59 | 53.03589 | -114.90617 | 16187 ft | 443 kts | 60° |
| 2026-05-06 20:59 | 53.04924 | -114.86061 | 15533 ft | 435 kts | 60° |
| 2026-05-06 21:00 | 53.06233 | -114.81575 | 14900 ft | 426 kts | 60° |
| 2026-05-06 21:00 | 53.07510 | -114.77189 | 14293 ft | 417 kts | 60° |
| 2026-05-06 21:00 | 53.08762 | -114.72899 | 13715 ft | 409 kts | 60° |
| 2026-05-06 21:00 | 53.09998 | -114.68672 | 13107 ft | 403 kts | 60° |
| 2026-05-06 21:01 | 53.11217 | -114.64493 | 12559 ft | 398 kts | 60° |
| 2026-05-06 21:01 | 53.12405 | -114.60406 | 11988 ft | 395 kts | 60° |
| 2026-05-06 21:01 | 53.13607 | -114.56266 | 11433 ft | 391 kts | 60° |
| 2026-05-06 21:01 | 53.14754 | -114.52295 | 11151 ft | 377 kts | 60° |
| 2026-05-06 21:02 | 53.15834 | -114.48518 | 10931 ft | 345 kts | 60° |
| 2026-05-06 21:02 | 53.16816 | -114.45061 | 10713 ft | 316 kts | 59° |
| 2026-05-06 21:02 | 53.17735 | -114.41842 | 10221 ft | 301 kts | 59° |
| 2026-05-06 21:02 | 53.18622 | -114.38765 | 9982 ft | 285 kts | 59° |
| 2026-05-06 21:03 | 53.19445 | -114.35894 | 9851 ft | 268 kts | 58° |
| 2026-05-06 21:03 | 53.20239 | -114.33133 | 9725 ft | 258 kts | 58° |
| 2026-05-06 21:03 | 53.20987 | -114.30522 | 9589 ft | 244 kts | 58° |
| 2026-05-06 21:03 | 53.21719 | -114.27979 | 9466 ft | 242 kts | 58° |
| 2026-05-06 21:04 | 53.22445 | -114.25458 | 9335 ft | 240 kts | 58° |
| 2026-05-06 21:04 | 53.23168 | -114.22942 | 9230 ft | 240 kts | 58° |
| 2026-05-06 21:04 | 53.23887 | -114.20435 | 9107 ft | 240 kts | 59° |
| 2026-05-06 21:04 | 53.24603 | -114.17928 | 8970 ft | 238 kts | 59° |
| 2026-05-06 21:05 | 53.25318 | -114.15425 | 8838 ft | 238 kts | 59° |
| 2026-05-06 21:05 | 53.26029 | -114.12917 | 8577 ft | 240 kts | 59° |
| 2026-05-06 21:05 | 53.26742 | -114.10396 | 8163 ft | 244 kts | 60° |
| 2026-05-06 21:05 | 53.27449 | -114.07884 | 7999 ft | 235 kts | 60° |
| 2026-05-06 21:06 | 53.28147 | -114.05425 | 7981 ft | 234 kts | 60° |
| 2026-05-06 21:06 | 53.28857 | -114.02972 | 8001 ft | 234 kts | 56° |
| 2026-05-06 21:06 | 53.29702 | -114.00647 | 7758 ft | 235 kts | 53° |
| 2026-05-06 21:06 | 53.30559 | -113.98291 | 7361 ft | 238 kts | 54° |
| 2026-05-06 21:07 | 53.31400 | -113.95963 | 7073 ft | 232 kts | 55° |
| 2026-05-06 21:07 | 53.32237 | -113.93645 | 6684 ft | 235 kts | 56° |
| 2026-05-06 21:07 | 53.33072 | -113.91327 | 6509 ft | 230 kts | 55° |
| 2026-05-06 21:07 | 53.33886 | -113.89065 | 6322 ft | 217 kts | 55° |
| 2026-05-06 21:08 | 53.34621 | -113.87008 | 6167 ft | 198 kts | 54° |
| 2026-05-06 21:08 | 53.35317 | -113.85069 | 5835 ft | 192 kts | 55° |
| 2026-05-06 21:08 | 53.36001 | -113.83172 | 5445 ft | 189 kts | 57° |
| 2026-05-06 21:08 | 53.36676 | -113.81306 | 5275 ft | 191 kts | 59° |
| 2026-05-06 21:09 | 53.37368 | -113.79396 | 5155 ft | 192 kts | 61° |
| 2026-05-06 21:09 | 53.37969 | -113.77419 | 4985 ft | 187 kts | 76° |
| 2026-05-06 21:09 | 53.38188 | -113.75332 | 4729 ft | 180 kts | 93° |
| 2026-05-06 21:09 | 53.38041 | -113.73309 | 4504 ft | 172 kts | 110° |
| 2026-05-06 21:10 | 53.37606 | -113.71583 | 4291 ft | 154 kts | 124° |
| 2026-05-06 21:10 | 53.36983 | -113.70220 | 4090 ft | 143 kts | 137° |
| 2026-05-06 21:10 | 53.36288 | -113.69066 | 3907 ft | 140 kts | 137° |
| 2026-05-06 21:10 | 53.35594 | -113.67906 | 3743 ft | 142 kts | 137° |
| 2026-05-06 21:11 | 53.34891 | -113.66726 | 3560 ft | 143 kts | 137° |
| 2026-05-06 21:11 | 53.34190 | -113.65549 | 3337 ft | 142 kts | 136° |
| 2026-05-06 21:11 | 53.33488 | -113.64370 | 3130 ft | 145 kts | 135° |
| 2026-05-06 21:11 | 53.32771 | -113.63167 | 2931 ft | 146 kts | 136° |
| 2026-05-06 21:12 | 53.32067 | -113.61985 | 2737 ft | 142 kts | 133° |
| 2026-05-06 21:12 | 53.31353 | -113.60789 | 2533 ft | 151 kts | 134° |
| 2026-05-06 21:12 | 53.30621 | -113.59560 | 2436 ft | 148 kts | 134° |
| 2026-05-06 21:12 | 53.29915 | -113.58378 | 2382 ft | 129 kts | 135° |
| 2026-05-06 21:13 | 53.29564 | -113.57798 | 2382 ft | 13 kts | 135° |
| 2026-05-06 21:13 | 53.29516 | -113.57711 | 2382 ft | 15 kts | 128° |
| 2026-05-06 21:13 | 53.29484 | -113.57496 | 2383 ft | 20 kts | 89° |
| 2026-05-06 21:13 | 53.29486 | -113.57407 | 2384 ft | 0 kts | 88° |
| 2026-05-06 21:14 | 53.29486 | -113.57380 | 2384 ft | 9 kts | 88° |
| 2026-05-06 21:14 | 53.29538 | -113.57281 | 2384 ft | 13 kts | 345° |
| 2026-05-06 21:14 | 53.29600 | -113.57374 | 2388 ft | 11 kts | 315° |
| 2026-05-06 21:15 | 53.29653 | -113.57460 | 2385 ft | 10 kts | 315° |
| 2026-05-06 21:15 | 53.29727 | -113.57588 | 2385 ft | 23 kts | 315° |
| 2026-05-06 21:15 | 53.29852 | -113.57798 | 2387 ft | 28 kts | 314° |
| 2026-05-06 21:15 | 53.29938 | -113.57943 | 2384 ft | 15 kts | 317° |
| 2026-05-06 21:16 | 53.30045 | -113.58119 | 2384 ft | 28 kts | 313° |
| 2026-05-06 21:16 | 53.30167 | -113.58308 | 2384 ft | 10 kts | 347° |
| 2026-05-06 21:16 | 53.30223 | -113.58253 | 2384 ft | 12 kts | 43° |
| 2026-05-06 21:16 | 53.30285 | -113.58158 | 2384 ft | 10 kts | 28° |
| 2026-05-06 21:17 | 53.30341 | -113.58104 | 2384 ft | 9 kts | 38° |
| 2026-05-06 21:17 | 53.30364 | -113.58077 | 2386 ft | 1 kts | 36° |
| 2026-05-06 21:17 | 53.30373 | -113.58066 | 2389 ft | 0 kts | 36° |